createdAt,value
2023-01-19T00:01:58.961Z,40.97
2023-01-19T00:05:02.021Z,57.80
2023-01-19T00:08:14.871Z,60.83
2023-01-19T00:11:18.180Z,47.88
2023-01-19T00:14:20.428Z,47.88
2023-01-19T00:17:22.858Z,47.25
2023-01-19T00:20:25.232Z,45.72
2023-01-19T00:23:27.491Z,44.75
2023-01-19T00:26:29.906Z,54.00
2023-01-19T00:29:33.744Z,55.75
2023-01-19T00:32:36.032Z,50.50
2023-01-19T00:35:38.352Z,51.47
2023-01-19T00:38:40.666Z,54.55
2023-01-19T00:42:09.218Z,48.42
2023-01-19T00:45:22.921Z,41.80
2023-01-19T00:48:25.276Z,41.40
2023-01-19T00:51:27.646Z,41.97
2023-01-19T00:54:29.900Z,43.38
2023-01-19T00:57:32.218Z,50.92
2023-01-19T01:00:34.480Z,47.13
2023-01-19T01:03:36.911Z,42.70
2023-01-19T01:06:39.194Z,38.63
2023-01-19T01:09:41.521Z,35.10
2023-01-19T01:12:57.667Z,38.25
2023-01-19T01:16:08.083Z,40.42
2023-01-19T01:22:12.648Z,37.20
2023-01-19T01:25:16.507Z,39.00
2023-01-19T01:28:18.868Z,38.88
2023-01-19T01:31:21.226Z,35.05
2023-01-19T01:34:23.545Z,35.40
2023-01-19T01:37:25.915Z,44.00
2023-01-19T01:40:28.748Z,45.38
2023-01-19T01:43:48.834Z,42.25
2023-01-19T01:46:51.182Z,38.88
2023-01-19T01:49:58.400Z,37.63
2023-01-19T01:53:08.302Z,44.97
2023-01-19T01:56:14.710Z,42.85
2023-01-19T01:59:27.412Z,36.45
2023-01-19T02:02:49.515Z,36.85
2023-01-19T02:05:52.864Z,42.42
2023-01-19T02:09:24.545Z,36.00
2023-01-19T02:12:46.127Z,38.05
2023-01-19T02:15:57.900Z,41.78
2023-01-19T02:19:01.235Z,34.30
2023-01-19T02:22:12.103Z,40.30
2023-01-19T02:25:14.830Z,35.50
2023-01-19T02:28:18.038Z,35.30
2023-01-19T02:31:20.470Z,42.28
2023-01-19T02:34:23.349Z,42.90
2023-01-19T02:37:26.454Z,39.08
2023-01-19T02:40:29.147Z,35.03
2023-01-19T02:43:32.118Z,36.65
2023-01-19T02:46:34.857Z,33.35
2023-01-19T02:49:37.688Z,36.97
2023-01-19T02:52:39.962Z,38.50
2023-01-19T02:55:47.030Z,39.97
2023-01-19T02:59:18.475Z,40.78
2023-01-19T03:02:29.728Z,38.72
2023-01-19T03:05:41.143Z,36.85
2023-01-19T03:08:50.140Z,40.47
2023-01-19T03:12:10.614Z,52.72
2023-01-19T03:15:21.119Z,37.83
2023-01-19T03:18:26.333Z,38.70
2023-01-19T03:21:29.480Z,37.67
2023-01-19T03:24:36.973Z,33.90
2023-01-19T03:27:41.323Z,38.60
2023-01-19T03:30:47.202Z,41.30
2023-01-19T03:33:52.827Z,35.80
2023-01-19T03:36:58.605Z,37.25
2023-01-19T03:40:01.144Z,38.38
2023-01-19T03:43:04.388Z,39.28
2023-01-19T03:46:07.430Z,32.60
2023-01-19T03:49:10.149Z,33.50
2023-01-19T03:52:13.022Z,36.55
2023-01-19T03:55:15.294Z,36.08
2023-01-19T03:58:18.099Z,36.17
2023-01-19T04:01:23.104Z,34.83
2023-01-19T04:04:25.721Z,34.78
2023-01-19T04:07:28.637Z,41.88
2023-01-19T04:10:30.954Z,27.45
2023-01-19T04:13:33.252Z,37.63
2023-01-19T04:16:35.880Z,35.22
2023-01-19T04:19:38.196Z,37.10
2023-01-19T04:22:40.608Z,33.90
2023-01-19T04:25:42.926Z,36.78
2023-01-19T04:28:45.345Z,38.08
2023-01-19T04:31:47.618Z,39.08
2023-01-19T04:34:49.883Z,36.72
2023-01-19T04:37:52.303Z,52.10
2023-01-19T04:40:55.244Z,42.17
2023-01-19T04:43:57.520Z,36.72
2023-01-19T04:47:00.008Z,40.45
2023-01-19T04:50:02.472Z,40.22
2023-01-19T04:53:04.803Z,45.60
2023-01-19T04:56:07.285Z,81.55
2023-01-19T04:59:09.620Z,43.67
2023-01-19T05:02:11.944Z,44.10
2023-01-19T05:05:14.735Z,38.53
2023-01-19T05:08:17.175Z,38.20
2023-01-19T05:11:19.476Z,37.40
2023-01-19T05:14:21.817Z,48.33
2023-01-19T05:17:24.186Z,67.80
2023-01-19T05:20:26.494Z,68.13
2023-01-19T05:23:31.105Z,67.30
2023-01-19T05:26:33.536Z,46.25
2023-01-19T05:29:35.881Z,43.22
2023-01-19T05:32:38.246Z,38.92
2023-01-19T05:35:40.549Z,40.63
2023-01-19T05:38:42.796Z,46.50
2023-01-19T05:41:45.688Z,36.97
2023-01-19T05:44:48.378Z,43.07
2023-01-19T05:47:51.042Z,48.55
2023-01-19T05:50:58.247Z,51.40
2023-01-19T05:54:01.134Z,44.28
2023-01-19T05:57:04.642Z,49.55
2023-01-19T06:00:07.624Z,46.33
2023-01-19T06:03:11.469Z,57.28
2023-01-19T06:06:15.128Z,44.22
2023-01-19T06:09:17.917Z,45.40
2023-01-19T06:12:20.410Z,53.38
2023-01-19T06:15:22.994Z,47.50
2023-01-19T06:18:25.438Z,43.22
2023-01-19T06:21:27.834Z,47.08
2023-01-19T06:24:30.349Z,46.65
2023-01-19T06:27:32.684Z,43.88
2023-01-19T06:30:35.038Z,55.90
2023-01-19T06:33:37.396Z,67.95
2023-01-19T06:36:39.793Z,66.45
2023-01-19T06:39:42.425Z,56.20
2023-01-19T06:42:44.693Z,55.45
2023-01-19T06:45:47.593Z,58.35
2023-01-19T06:48:49.987Z,74.72
2023-01-19T06:51:52.400Z,53.38
2023-01-19T06:54:54.905Z,57.42
2023-01-19T06:57:59.842Z,53.53
2023-01-19T07:01:03.865Z,47.95
2023-01-19T07:07:08.473Z,60.70
2023-01-19T07:10:12.039Z,71.00
2023-01-19T07:13:14.383Z,63.63
2023-01-19T07:16:16.717Z,85.25
2023-01-19T07:19:19.155Z,85.72
2023-01-19T07:22:21.561Z,117.05
2023-01-19T07:25:23.961Z,90.05
2023-01-19T07:28:26.370Z,94.68
2023-01-19T07:31:28.774Z,119.63
2023-01-19T07:34:31.350Z,78.10
2023-01-19T07:37:33.714Z,81.65
2023-01-19T07:40:36.067Z,77.57
2023-01-19T07:43:38.686Z,64.35
2023-01-19T07:46:41.347Z,72.90
2023-01-19T07:49:43.620Z,84.38
2023-01-19T07:52:46.173Z,76.40
2023-01-19T07:55:54.980Z,74.60
2023-01-19T07:58:57.860Z,75.43
2023-01-19T08:02:00.557Z,88.32
2023-01-19T08:05:03.113Z,82.35
2023-01-19T08:08:05.714Z,91.35
2023-01-19T08:11:08.596Z,120.50
2023-01-19T08:14:11.174Z,106.18
2023-01-19T08:17:14.213Z,84.15
2023-01-19T08:20:16.488Z,89.50
2023-01-19T08:23:19.793Z,85.85
2023-01-19T08:26:29.922Z,88.78
2023-01-19T08:29:33.764Z,79.40
2023-01-19T08:32:36.088Z,93.10
2023-01-19T08:35:41.380Z,95.70
2023-01-19T08:38:45.704Z,77.78
2023-01-19T08:41:47.988Z,85.57
2023-01-19T08:44:58.186Z,92.60
2023-01-19T08:48:01.272Z,90.70
2023-01-19T08:51:03.674Z,104.95
2023-01-19T08:54:06.072Z,96.28
2023-01-19T08:57:08.357Z,115.30
2023-01-19T09:00:11.218Z,90.38
2023-01-19T09:03:14.036Z,99.45
2023-01-19T09:06:18.602Z,102.22
2023-01-19T09:09:20.899Z,112.90
2023-01-19T09:12:23.213Z,108.45
2023-01-19T09:15:25.578Z,104.10
2023-01-19T09:18:27.920Z,98.90
2023-01-19T09:21:30.268Z,81.40
2023-01-19T09:24:32.596Z,87.30
2023-01-19T09:27:35.074Z,97.82
2023-01-19T09:30:40.712Z,101.57
2023-01-19T09:33:43.093Z,93.85
2023-01-19T09:36:47.483Z,92.55
2023-01-19T09:39:49.814Z,99.55
2023-01-19T09:43:05.124Z,123.15
2023-01-19T09:46:16.234Z,106.95
2023-01-19T09:49:33.443Z,120.13
2023-01-19T09:52:37.724Z,102.53
2023-01-19T09:55:42.725Z,128.13
2023-01-19T09:58:45.113Z,135.35
2023-01-19T10:02:15.715Z,130.25
2023-01-19T10:05:22.210Z,103.10
2023-01-19T10:08:36.456Z,104.15
2023-01-19T10:15:04.541Z,120.10
2023-01-19T10:18:06.731Z,139.10
2023-01-19T10:21:11.943Z,138.40
2023-01-19T10:24:23.176Z,108.05
2023-01-19T10:27:29.545Z,106.18
2023-01-19T10:30:32.090Z,86.78
2023-01-19T10:33:35.397Z,114.38
2023-01-19T10:36:40.079Z,84.30
2023-01-19T10:39:42.970Z,136.98
2023-01-19T10:42:45.435Z,76.65
2023-01-19T10:45:50.775Z,113.50
2023-01-19T10:48:54.528Z,115.07
2023-01-19T10:51:58.956Z,101.70
2023-01-19T10:55:03.444Z,119.40
2023-01-19T10:58:08.046Z,135.95
2023-01-19T11:01:19.978Z,122.32
2023-01-19T11:04:31.774Z,107.22
2023-01-19T11:07:35.195Z,93.28
2023-01-19T11:10:38.651Z,80.13
2023-01-19T11:13:41.874Z,90.60
2023-01-19T11:16:49.845Z,80.47
2023-01-19T11:19:57.939Z,108.43
2023-01-19T11:23:16.067Z,99.03
2023-01-19T11:26:27.937Z,105.07
2023-01-19T11:29:30.803Z,120.85
2023-01-19T11:32:36.991Z,101.60
2023-01-19T11:35:41.297Z,136.00
2023-01-19T11:38:46.186Z,109.82
2023-01-19T11:41:51.707Z,118.63
2023-01-19T11:45:03.734Z,127.00
2023-01-19T11:48:06.772Z,143.90
2023-01-19T11:51:14.938Z,85.90
2023-01-19T11:54:23.911Z,120.15
2023-01-19T11:57:26.572Z,163.02
2023-01-19T12:00:43.797Z,129.18
2023-01-19T12:03:54.693Z,119.50
2023-01-19T12:06:58.451Z,155.85
2023-01-19T12:10:13.691Z,147.20
2023-01-19T12:13:35.012Z,132.27
2023-01-19T12:16:39.439Z,139.70
2023-01-19T12:19:46.126Z,125.07
2023-01-19T12:23:03.163Z,117.95
2023-01-19T12:26:22.009Z,139.02
2023-01-19T12:29:28.336Z,137.95
2023-01-19T12:32:35.596Z,151.48
2023-01-19T12:35:57.230Z,135.95
2023-01-19T12:39:18.711Z,141.80
2023-01-19T12:42:21.529Z,142.38
2023-01-19T12:45:25.849Z,156.77
2023-01-19T12:48:28.439Z,147.25
2023-01-19T12:51:30.746Z,154.45
2023-01-19T12:54:33.502Z,161.50
2023-01-19T12:57:39.770Z,139.70
2023-01-19T13:00:43.947Z,132.35
2023-01-19T13:04:09.748Z,125.72
2023-01-19T13:07:17.989Z,124.43
2023-01-19T13:10:54.376Z,128.30
2023-01-19T13:13:59.511Z,123.70
2023-01-19T13:17:02.986Z,122.40
2023-01-19T13:20:19.515Z,139.30
2023-01-19T13:23:21.916Z,316.05
2023-01-19T13:26:35.427Z,372.50
2023-01-19T13:29:41.927Z,187.07
2023-01-19T13:32:44.281Z,151.88
2023-01-19T13:35:55.611Z,127.75
2023-01-19T13:39:28.544Z,114.95
2023-01-19T13:42:42.020Z,109.57
2023-01-19T13:45:50.716Z,101.33
2023-01-19T13:48:57.177Z,93.90
2023-01-19T13:52:14.345Z,102.95
2023-01-19T13:55:17.181Z,104.65
2023-01-19T13:58:24.242Z,100.75
2023-01-19T14:01:29.278Z,95.95
2023-01-19T14:04:33.946Z,88.10
2023-01-19T14:07:36.333Z,83.75
2023-01-19T14:10:47.383Z,92.70
2023-01-19T14:13:49.700Z,80.32
2023-01-19T14:16:52.039Z,83.10
2023-01-19T14:19:56.935Z,85.03
2023-01-19T14:22:59.185Z,89.25
2023-01-19T14:26:01.624Z,89.32
2023-01-19T14:29:22.241Z,86.68
2023-01-19T14:32:25.508Z,103.95
2023-01-19T14:35:30.142Z,72.28
2023-01-19T14:38:32.535Z,95.63
2023-01-19T14:41:41.445Z,93.13
2023-01-19T14:44:48.240Z,85.35
2023-01-19T14:48:18.412Z,94.78
2023-01-19T14:51:23.283Z,94.95
2023-01-19T14:54:31.570Z,78.60
2023-01-19T14:57:36.696Z,89.50
2023-01-19T15:00:39.618Z,72.82
2023-01-19T15:03:45.376Z,75.05
2023-01-19T15:06:48.567Z,80.55
2023-01-19T15:09:51.205Z,74.35
2023-01-19T15:12:54.829Z,75.95
2023-01-19T15:15:58.517Z,77.22
2023-01-19T15:19:01.051Z,76.03
2023-01-19T15:22:06.163Z,87.00
2023-01-19T15:25:09.068Z,112.18
2023-01-19T15:28:18.250Z,70.13
2023-01-19T15:31:22.585Z,115.40
2023-01-19T15:34:24.971Z,89.50
2023-01-19T15:37:27.408Z,87.00
2023-01-19T15:40:29.643Z,91.45
2023-01-19T15:43:31.962Z,104.60
2023-01-19T15:46:34.859Z,127.20
2023-01-19T15:49:37.182Z,111.90
2023-01-19T15:52:39.468Z,99.68
2023-01-19T15:55:43.102Z,83.60
2023-01-19T15:58:46.706Z,90.90
2023-01-19T16:01:50.895Z,111.18
2023-01-19T16:04:53.448Z,91.50
2023-01-19T16:07:56.137Z,98.07
2023-01-19T16:10:58.539Z,98.53
2023-01-19T16:14:01.368Z,89.28
2023-01-19T16:17:03.819Z,90.15
2023-01-19T16:20:07.362Z,94.03
2023-01-19T16:23:14.747Z,93.25
2023-01-19T16:26:33.229Z,105.03
2023-01-19T16:29:35.545Z,102.80
2023-01-19T16:32:38.544Z,95.32
2023-01-19T16:35:40.885Z,86.55
2023-01-19T16:38:43.247Z,109.18
2023-01-19T16:41:46.316Z,95.43
2023-01-19T16:44:48.659Z,101.45
2023-01-19T16:47:52.265Z,127.90
2023-01-19T16:51:01.342Z,142.98
2023-01-19T16:54:03.869Z,141.32
2023-01-19T16:57:06.360Z,144.40
2023-01-19T17:00:10.651Z,140.40
2023-01-19T17:03:13.117Z,130.45
2023-01-19T17:06:20.487Z,116.05
2023-01-19T17:09:22.897Z,112.78
2023-01-19T17:12:25.257Z,129.90
2023-01-19T17:15:27.524Z,126.57
2023-01-19T17:18:32.903Z,105.95
2023-01-19T17:21:35.877Z,120.70
2023-01-19T17:24:42.380Z,108.85
2023-01-19T17:27:44.791Z,108.50
2023-01-19T17:30:47.293Z,117.82
2023-01-19T17:33:50.893Z,97.40
2023-01-19T17:36:53.220Z,70.18
2023-01-19T17:39:56.875Z,99.13
2023-01-19T17:42:59.198Z,122.05
2023-01-19T17:46:01.601Z,117.03
2023-01-19T17:49:06.441Z,119.72
2023-01-19T17:52:12.850Z,104.60
2023-01-19T17:55:20.205Z,119.82
2023-01-19T17:58:23.727Z,117.38
2023-01-19T18:01:28.806Z,117.60
2023-01-19T18:04:32.243Z,109.63
2023-01-19T18:07:34.679Z,119.35
2023-01-19T18:10:37.829Z,111.70
2023-01-19T18:13:42.125Z,111.57
2023-01-19T18:16:44.435Z,113.88
2023-01-19T18:19:46.843Z,107.82
2023-01-19T18:22:49.216Z,110.43
2023-01-19T18:25:51.523Z,108.80
2023-01-19T18:28:56.756Z,106.70
2023-01-19T18:31:59.008Z,104.55
2023-01-19T18:35:05.366Z,118.30
2023-01-19T18:38:12.866Z,138.48
2023-01-19T18:41:17.394Z,121.93
2023-01-19T18:44:19.650Z,111.57
2023-01-19T18:47:21.998Z,125.32
2023-01-19T18:50:24.278Z,115.07
2023-01-19T18:53:26.645Z,108.20
2023-01-19T18:56:29.155Z,118.55
2023-01-19T18:59:31.496Z,117.65
2023-01-19T19:02:33.806Z,125.93
2023-01-19T19:05:36.343Z,146.38
2023-01-19T19:08:38.856Z,132.85
2023-01-19T19:11:41.218Z,123.43
2023-01-19T19:14:43.606Z,124.45
2023-01-19T19:17:45.946Z,126.97
2023-01-19T19:20:48.344Z,116.53
2023-01-19T19:23:58.283Z,161.18
2023-01-19T19:27:00.564Z,163.45
2023-01-19T19:30:04.202Z,113.90
2023-01-19T19:33:07.863Z,176.50
2023-01-19T19:36:11.913Z,125.88
2023-01-19T19:39:14.200Z,124.07
2023-01-19T19:42:16.695Z,139.88
2023-01-19T19:45:19.574Z,152.05
2023-01-19T19:48:21.931Z,125.30
2023-01-19T19:51:27.099Z,122.75
2023-01-19T19:54:29.614Z,128.43
2023-01-19T19:57:31.871Z,125.25
2023-01-19T20:00:34.223Z,126.57
2023-01-19T20:03:36.731Z,131.52
2023-01-19T20:06:45.002Z,137.75
2023-01-19T20:09:47.696Z,146.50
2023-01-19T20:12:51.783Z,164.23
2023-01-19T20:18:56.708Z,143.65
2023-01-19T20:21:59.057Z,144.75
2023-01-19T20:25:01.359Z,142.27
2023-01-19T20:28:03.734Z,145.27
2023-01-19T20:31:22.615Z,139.48
2023-01-19T20:34:30.451Z,170.13
2023-01-19T20:37:49.936Z,155.18
2023-01-19T20:40:54.168Z,154.73
2023-01-19T20:43:56.567Z,122.45
2023-01-19T20:46:59.037Z,120.47
2023-01-19T20:50:01.474Z,115.38
2023-01-19T20:53:04.080Z,115.97
2023-01-19T20:56:12.731Z,103.65
2023-01-19T20:59:15.247Z,90.20
2023-01-19T21:02:17.788Z,95.00
2023-01-19T21:05:20.148Z,86.50
2023-01-19T21:08:22.711Z,97.82
2023-01-19T21:11:25.690Z,92.80
2023-01-19T21:14:27.998Z,93.88
2023-01-19T21:17:30.355Z,89.13
2023-01-19T21:20:33.113Z,84.53
2023-01-19T21:23:35.499Z,80.80
2023-01-19T21:26:38.034Z,81.85
2023-01-19T21:29:41.019Z,66.80
2023-01-19T21:32:43.291Z,60.90
2023-01-19T21:35:56.864Z,59.97
2023-01-19T21:39:00.980Z,64.45
2023-01-19T21:42:03.610Z,62.45
2023-01-19T21:45:06.978Z,64.85
2023-01-19T21:48:09.764Z,50.40
2023-01-19T21:51:13.398Z,58.33
2023-01-19T21:54:15.717Z,56.42
2023-01-19T21:57:19.764Z,57.25
2023-01-19T22:00:22.159Z,58.05
2023-01-19T22:03:25.490Z,61.47
2023-01-19T22:06:28.563Z,60.38
2023-01-19T22:09:30.898Z,59.22
2023-01-19T22:12:33.190Z,52.90
2023-01-19T22:15:35.512Z,54.63
2023-01-19T22:18:39.241Z,56.72
2023-01-19T22:21:41.595Z,55.08
2023-01-19T22:24:46.730Z,49.67
2023-01-19T22:27:49.092Z,45.50
2023-01-19T22:30:51.621Z,52.03
2023-01-19T22:33:54.589Z,53.08
2023-01-19T22:36:56.965Z,47.55
2023-01-19T22:39:59.201Z,50.80
2023-01-19T22:43:01.514Z,50.08
2023-01-19T22:46:04.249Z,49.72
2023-01-19T22:49:07.814Z,49.10
2023-01-19T22:52:10.083Z,40.10
2023-01-19T22:55:12.726Z,47.80
2023-01-19T22:58:15.394Z,54.27
2023-01-19T23:01:21.089Z,54.85
2023-01-19T23:04:23.744Z,57.78
2023-01-19T23:07:26.029Z,58.58
2023-01-19T23:10:28.480Z,60.22
2023-01-19T23:13:30.791Z,60.30
2023-01-19T23:16:33.180Z,69.32
2023-01-19T23:19:35.632Z,80.03
2023-01-19T23:22:38.083Z,88.13
2023-01-19T23:25:40.431Z,90.43
2023-01-19T23:28:43.341Z,87.93
2023-01-19T23:31:47.439Z,82.68
2023-01-19T23:34:49.746Z,77.82
2023-01-19T23:37:52.115Z,67.75
2023-01-19T23:40:57.990Z,71.93
2023-01-19T23:44:00.269Z,59.55
2023-01-19T23:47:02.618Z,59.90
2023-01-19T23:50:05.844Z,55.58
2023-01-19T23:53:08.266Z,38.38
2023-01-19T23:56:18.333Z,46.55
2023-01-19T23:59:20.627Z,45.20
